aviador You're here:

KLHQ Decoded Metar

LANCASTER in OH, USA
Report Time2018-07-20 08:53:00
UTC Time2018-07-20 09:03:09
Flight Rules vfr VFR
Wind130° at 08 kt
W.Decomp.*RWY 10: 6.5 kt HW 4.7 kt RCW
W.Rank130° ranks 22
Current wind is above 130° avg. (6.0)
Visibility9999 m
Phenomena:N/A
Clouds:Scattered 055 Hf
Expected CloudBase > 1,600 ft AGL from Temp-Dew spread
CeilingNone
Temp22°C (ISA +9)
Dew Point18°C (78% RH)
AAT21.9°C
QNH1014 hPa
Density Alt2,110 ft
Elevation853 ft
Report Wrong Elevation
Raw Report
KLHQ 200853Z AUTO 13008KT 10SM SCT055 22/18 A2994 RMK AO2 SLP129
T02170183 56005=

Extra information for KLHQ:More info

Metar Taf Metar & Taf Last 4 Metars F.Rules Stats Wind Profile Meteogram Temp Stats Airport Information Weather charts Add Link Nearby VenuesMetar ALERT Operation Metar Decoded Social comments

AIRNAV info for KLHQ